Time;durP1;ratioP1;P1;durP2;ratioP2;P2;SDS_P1;SDS_P2;PMS_P1;PMS_P2;Temp;Humidity;BMP_temperature;BMP_pressure;BME280_temperature;BME280_humidity;BME280_pressure;Samples;Min_cycle;Max_cycle;Signal;HPM_P1;HPM_P2
2022/09/12 00:00:47;;;;;;;;;;;14.20;87.30;;;;;;5052669;28;19917;-85
2022/09/12 00:03:12;;;;;;;;;;;14.20;86.90;;;;;;5053312;28;19927;-86
2022/09/12 00:05:44;;;;;;;;;;;14.10;86.90;;;;;;5057955;28;19921;-85
2022/09/12 00:08:10;;;;;;;;;;;14.10;87.10;;;;;;5057035;28;19921;-86
2022/09/12 00:10:37;;;;;;;;;;;14.10;87.10;;;;;;5056321;28;19923;-85
2022/09/12 00:13:03;;;;;;;;;;;14.10;87.00;;;;;;5052224;28;19916;-85
2022/09/12 00:15:28;;;;;;;;;;;14.10;87.00;;;;;;5053640;28;19965;-85
2022/09/12 00:17:53;;;;;;;;;;;14.10;86.70;;;;;;5049544;28;19920;-86
2022/09/12 00:20:19;;;;;;;;;;;14.10;86.30;;;;;;5052517;28;19916;-86
2022/09/12 00:22:44;;;;;;;;;;;14.10;85.80;;;;;;5052608;28;20282;-85
2022/09/12 00:25:10;;;;;;;;;;;14.10;86.10;;;;;;5053770;28;19917;-86
2022/09/12 00:27:36;;;;;;;;;;;14.00;86.60;;;;;;5051710;28;19996;-85
2022/09/12 00:30:02;;;;;;;;;;;14.00;86.60;;;;;;5054946;28;19947;-85
2022/09/12 00:32:27;;;;;;;;;;;13.90;86.70;;;;;;5052954;28;19967;-85
2022/09/12 00:34:52;;;;;;;;;;;13.90;87.00;;;;;;5052550;28;19936;-85
2022/09/12 00:37:18;;;;;;;;;;;13.80;86.70;;;;;;5053092;28;19966;-85
2022/09/12 00:39:43;;;;;;;;;;;13.80;87.00;;;;;;5054399;28;19992;-85
2022/09/12 00:42:10;;;;;;;;;;;13.70;87.00;;;;;;5052276;28;19913;-85
2022/09/12 00:44:36;;;;;;;;;;;13.70;86.80;;;;;;5053518;28;19909;-85
2022/09/12 00:47:09;;;;;;;;;;;13.70;86.80;;;;;;5052708;28;19982;-85
2022/09/12 00:49:53;;;;;;;;;;;13.60;87.00;;;;;;5054398;28;19916;-85
2022/09/12 00:52:21;;;;;;;;;;;13.60;87.40;;;;;;5050464;28;19917;-85
2022/09/12 00:54:59;;;;;;;;;;;13.60;87.90;;;;;;5050418;28;19913;-86
2022/09/12 00:57:28;;;;;;;;;;;13.60;87.40;;;;;;5064897;28;19913;-86
2022/09/12 01:00:15;;;;;;;;;;;13.70;87.10;;;;;;5075499;28;19923;-87
2022/09/12 01:02:41;;;;;;;;;;;13.70;87.00;;;;;;5053876;28;20478;-85
2022/09/12 01:05:07;;;;;;;;;;;13.60;87.00;;;;;;5056402;28;19920;-86
2022/09/12 01:07:37;;;;;;;;;;;13.70;86.50;;;;;;5054422;28;20017;-85
2022/09/12 01:10:04;;;;;;;;;;;13.60;86.80;;;;;;5051827;28;20332;-85
2022/09/12 01:12:30;;;;;;;;;;;13.60;86.30;;;;;;5054315;28;19924;-85
2022/09/12 01:14:55;;;;;;;;;;;13.60;86.20;;;;;;5053404;28;19931;-86
2022/09/12 01:17:23;;;;;;;;;;;13.50;86.40;;;;;;5050411;28;20006;-85
2022/09/12 01:20:07;;;;;;;;;;;13.60;86.30;;;;;;5052322;28;19955;-86
2022/09/12 01:22:32;;;;;;;;;;;13.50;86.00;;;;;;5052155;28;19917;-86
2022/09/12 01:25:24;;;;;;;;;;;13.50;86.10;;;;;;5053636;28;20437;-85
2022/09/12 01:28:02;;;;;;;;;;;13.50;86.50;;;;;;5023001;28;19917;-85
2022/09/12 01:30:45;;;;;;;;;;;13.50;86.50;;;;;;5053787;28;20300;-85
2022/09/12 01:33:20;;;;;;;;;;;13.40;86.40;;;;;;5051538;28;19920;-85
2022/09/12 01:36:04;;;;;;;;;;;13.50;86.20;;;;;;5061839;28;19936;-86
2022/09/12 01:38:30;;;;;;;;;;;13.40;86.40;;;;;;5053104;28;19913;-86
2022/09/12 01:41:09;;;;;;;;;;;13.30;86.40;;;;;;5051031;28;19913;-85
2022/09/12 01:43:41;;;;;;;;;;;13.40;86.20;;;;;;5050024;28;19953;-85
2022/09/12 01:46:23;;;;;;;;;;;13.50;86.20;;;;;;5051749;28;19917;-86
2022/09/12 01:48:57;;;;;;;;;;;13.40;86.20;;;;;;5053443;28;19923;-85
2022/09/12 01:51:22;;;;;;;;;;;13.30;85.90;;;;;;5051467;28;19921;-86
2022/09/12 01:53:50;;;;;;;;;;;13.30;86.20;;;;;;5045145;28;19916;-85
2022/09/12 01:56:27;;;;;;;;;;;13.30;86.20;;;;;;5055468;28;20007;-85
2022/09/12 01:59:05;;;;;;;;;;;13.20;86.20;;;;;;5048892;28;19917;-86
2022/09/12 02:01:32;;;;;;;;;;;13.20;86.30;;;;;;5049438;28;19913;-86
2022/09/12 02:04:16;;;;;;;;;;;13.20;86.30;;;;;;5051995;28;20337;-85
2022/09/12 02:06:42;;;;;;;;;;;13.30;86.20;;;;;;5063930;28;19917;-85
2022/09/12 02:09:17;;;;;;;;;;;13.30;86.00;;;;;;5049885;28;19920;-85
2022/09/12 02:11:43;;;;;;;;;;;13.30;86.10;;;;;;5050857;28;19924;-85
2022/09/12 02:14:10;;;;;;;;;;;13.30;85.70;;;;;;5051581;28;20390;-85
2022/09/12 02:16:39;;;;;;;;;;;13.20;86.10;;;;;;5049051;28;19916;-86
2022/09/12 02:19:08;;;;;;;;;;;13.20;86.00;;;;;;5051286;28;19964;-86
2022/09/12 02:21:34;;;;;;;;;;;13.10;86.00;;;;;;5050094;28;19955;-85
2022/09/12 02:24:01;;;;;;;;;;;13.10;86.20;;;;;;5051450;28;19913;-86
2022/09/12 02:26:35;;;;;;;;;;;13.10;86.00;;;;;;5050830;28;20267;-85
2022/09/12 02:29:01;;;;;;;;;;;13.10;85.90;;;;;;5051772;28;19913;-86
2022/09/12 02:31:41;;;;;;;;;;;13.10;86.00;;;;;;5049883;28;19928;-85
2022/09/12 02:34:26;;;;;;;;;;;13.00;86.00;;;;;;5053065;28;20016;-86
2022/09/12 02:36:55;;;;;;;;;;;13.10;85.90;;;;;;5049430;28;19959;-85
2022/09/12 02:39:20;;;;;;;;;;;13.10;85.90;;;;;;5042508;28;19913;-85
2022/09/12 02:41:47;;;;;;;;;;;13.00;85.80;;;;;;5049338;28;20016;-85
2022/09/12 02:44:12;;;;;;;;;;;12.90;85.70;;;;;;5051452;28;20287;-86
2022/09/12 02:46:39;;;;;;;;;;;13.00;85.80;;;;;;5049828;28;19917;-85
2022/09/12 02:49:05;;;;;;;;;;;13.00;85.40;;;;;;5049608;28;19912;-85
2022/09/12 02:51:31;;;;;;;;;;;13.00;85.70;;;;;;5053813;28;19915;-86
2022/09/12 02:53:57;;;;;;;;;;;13.00;85.70;;;;;;5052067;28;20295;-86
2022/09/12 02:56:25;;;;;;;;;;;13.10;85.50;;;;;;5051489;28;19920;-86
2022/09/12 02:58:52;;;;;;;;;;;13.00;85.90;;;;;;5046858;28;20330;-86
2022/09/12 03:01:26;;;;;;;;;;;13.00;86.20;;;;;;5054346;28;19917;-86
2022/09/12 03:04:10;;;;;;;;;;;13.00;86.20;;;;;;5055213;28;19956;-86
2022/09/12 03:06:55;;;;;;;;;;;12.90;86.50;;;;;;5054307;28;19916;-85
2022/09/12 03:09:35;;;;;;;;;;;12.90;86.40;;;;;;5054863;28;19912;-85
2022/09/12 03:12:04;;;;;;;;;;;12.80;86.30;;;;;;5054424;28;19946;-85
2022/09/12 03:14:38;;;;;;;;;;;12.90;86.20;;;;;;5056532;28;20291;-86
2022/09/12 03:17:30;;;;;;;;;;;12.80;86.10;;;;;;5057268;28;19958;-86
2022/09/12 03:20:09;;;;;;;;;;;12.70;86.30;;;;;;5051811;28;19916;-86
2022/09/12 03:22:50;;;;;;;;;;;12.80;86.00;;;;;;5054796;28;19917;-86
2022/09/12 03:25:15;;;;;;;;;;;12.70;85.70;;;;;;5053686;28;19913;-86
2022/09/12 03:27:44;;;;;;;;;;;12.60;86.10;;;;;;5050352;28;20403;-86
2022/09/12 03:30:11;;;;;;;;;;;12.60;86.40;;;;;;5055583;28;19920;-85
2022/09/12 03:32:39;;;;;;;;;;;12.70;86.00;;;;;;5056042;28;19955;-86
2022/09/12 03:35:05;;;;;;;;;;;12.70;86.10;;;;;;5053590;28;19970;-86
2022/09/12 03:37:30;;;;;;;;;;;12.70;85.80;;;;;;5048887;28;19913;-85
2022/09/12 03:39:56;;;;;;;;;;;12.70;86.50;;;;;;5053602;28;19983;-85
2022/09/12 03:42:21;;;;;;;;;;;12.60;86.30;;;;;;5053157;28;20317;-85
2022/09/12 03:44:47;;;;;;;;;;;12.70;86.00;;;;;;5051808;28;19916;-86
2022/09/12 03:47:12;;;;;;;;;;;12.80;86.10;;;;;;5053177;28;19961;-86
2022/09/12 03:49:38;;;;;;;;;;;12.80;85.70;;;;;;5053639;28;19971;-86
2022/09/12 03:52:03;;;;;;;;;;;12.70;85.60;;;;;;5055135;28;20260;-85
2022/09/12 03:54:29;;;;;;;;;;;12.80;85.50;;;;;;5051246;28;20018;-86
2022/09/12 03:56:54;;;;;;;;;;;12.70;85.70;;;;;;5052385;28;19912;-87
2022/09/12 03:59:20;;;;;;;;;;;12.60;85.90;;;;;;5053788;28;19912;-85
2022/09/12 04:01:45;;;;;;;;;;;12.50;86.30;;;;;;5055211;28;19908;-85
2022/09/12 04:04:11;;;;;;;;;;;12.60;86.10;;;;;;5052727;28;19920;-85
2022/09/12 04:06:36;;;;;;;;;;;12.60;85.90;;;;;;5049361;28;19901;-85
2022/09/12 04:09:02;;;;;;;;;;;12.50;86.20;;;;;;5077182;28;19912;-86
2022/09/12 04:11:27;;;;;;;;;;;12.50;86.00;;;;;;5076410;28;19943;-86
2022/09/12 04:13:53;;;;;;;;;;;12.50;86.00;;;;;;5053842;28;19917;-86
2022/09/12 04:16:18;;;;;;;;;;;12.60;85.90;;;;;;5054962;28;20446;-85
2022/09/12 04:18:44;;;;;;;;;;;12.60;85.90;;;;;;5053794;28;19944;-86
2022/09/12 04:21:12;;;;;;;;;;;12.60;85.70;;;;;;5053611;28;19912;-85
2022/09/12 04:23:37;;;;;;;;;;;12.50;85.90;;;;;;5050505;28;19916;-85
2022/09/12 04:26:05;;;;;;;;;;;12.50;85.80;;;;;;5051658;28;19923;-85
2022/09/12 04:28:31;;;;;;;;;;;12.50;86.30;;;;;;5050908;28;20024;-86
2022/09/12 04:31:00;;;;;;;;;;;12.40;86.30;;;;;;5051835;28;19936;-85
2022/09/12 04:33:26;;;;;;;;;;;12.40;86.30;;;;;;5039499;28;19913;-86
2022/09/12 04:35:51;;;;;;;;;;;12.40;86.40;;;;;;5043837;28;19958;-86
2022/09/12 04:38:17;;;;;;;;;;;12.50;86.40;;;;;;5053378;28;19913;-85
2022/09/12 04:40:42;;;;;;;;;;;12.50;86.30;;;;;;5053676;28;20018;-86
2022/09/12 04:43:08;;;;;;;;;;;12.50;86.10;;;;;;5053069;28;20006;-86
2022/09/12 04:45:33;;;;;;;;;;;12.50;86.20;;;;;;5051518;28;19982;-85
2022/09/12 04:47:59;;;;;;;;;;;12.50;86.90;;;;;;5048216;28;19920;-85
2022/09/12 04:50:24;;;;;;;;;;;12.40;86.90;;;;;;5050352;28;19927;-85
2022/09/12 04:52:51;;;;;;;;;;;12.50;86.40;;;;;;5052127;28;19913;-86
2022/09/12 04:55:17;;;;;;;;;;;12.50;86.50;;;;;;5050754;28;19919;-86
2022/09/12 04:57:42;;;;;;;;;;;12.50;86.50;;;;;;5052208;28;19999;-85
2022/09/12 05:00:12;;;;;;;;;;;12.50;86.60;;;;;;5050915;28;19913;-85
2022/09/12 05:02:38;;;;;;;;;;;12.60;86.50;;;;;;5045125;28;19945;-85
2022/09/12 05:05:03;;;;;;;;;;;12.50;86.80;;;;;;5050763;28;20315;-80
2022/09/12 05:07:29;;;;;;;;;;;12.50;86.60;;;;;;5051306;28;19917;-82
2022/09/12 05:09:54;;;;;;;;;;;12.40;86.60;;;;;;5053551;28;19921;-81
2022/09/12 05:12:19;;;;;;;;;;;12.40;86.50;;;;;;5069077;22;19927;-87
2022/09/12 05:14:45;;;;;;;;;;;12.30;86.70;;;;;;5047025;28;19917;-87
2022/09/12 05:17:10;;;;;;;;;;;12.20;87.10;;;;;;5033113;28;19905;-86
2022/09/12 05:19:36;;;;;;;;;;;12.30;87.00;;;;;;5032016;28;19913;-85
2022/09/12 05:22:03;;;;;;;;;;;12.30;87.00;;;;;;5031102;28;19980;-85
2022/09/12 05:24:29;;;;;;;;;;;12.30;86.80;;;;;;5031937;28;20000;-84
2022/09/12 05:26:54;;;;;;;;;;;12.20;86.80;;;;;;5030946;28;20004;-85
2022/09/12 05:29:20;;;;;;;;;;;12.10;87.20;;;;;;5033216;28;19952;-87
2022/09/12 05:31:50;;;;;;;;;;;12.10;87.80;;;;;;5031109;28;20080;-91
2022/09/12 05:34:16;;;;;;;;;;;12.40;87.50;;;;;;5030477;28;20366;-85
2022/09/12 05:37:05;;;;;;;;;;;12.40;87.20;;;;;;5031739;28;19949;-85
2022/09/12 05:39:49;;;;;;;;;;;12.50;87.10;;;;;;5047936;28;19917;-84
2022/09/12 05:42:15;;;;;;;;;;;12.50;87.40;;;;;;5041471;28;19901;-85
2022/09/12 05:44:43;;;;;;;;;;;12.60;87.60;;;;;;5050830;28;20395;-88
2022/09/12 05:47:14;;;;;;;;;;;12.60;87.60;;;;;;5029588;28;19963;-89
2022/09/12 05:50:08;;;;;;;;;;;12.70;87.80;;;;;;5029396;28;19913;-89
2022/09/12 05:53:28;;;;;;;;;;;12.80;87.50;;;;;;5031062;28;19917;-89
2022/09/12 05:56:25;;;;;;;;;;;;;;;;;;;;;
2022/09/12 05:58:55;;;;;;;;;;;12.90;87.50;;;;;;5025871;28;19919;-89
2022/09/12 06:01:29;;;;;;;;;;;13.00;87.60;;;;;;5038292;28;19999;-88
2022/09/12 06:03:59;;;;;;;;;;;13.00;87.80;;;;;;5026393;28;19914;-88
2022/09/12 06:06:50;;;;;;;;;;;13.10;88.10;;;;;;5042596;28;19913;-88
2022/09/12 06:09:30;;;;;;;;;;;13.10;88.10;;;;;;5030485;28;20314;-88
2022/09/12 06:11:59;;;;;;;;;;;13.20;88.20;;;;;;5030212;28;19932;-87
2022/09/12 06:14:25;;;;;;;;;;;13.40;88.20;;;;;;5032408;28;20279;-86
2022/09/12 06:16:50;;;;;;;;;;;13.50;88.30;;;;;;5033500;28;19971;-84
2022/09/12 06:19:20;;;;;;;;;;;13.60;88.20;;;;;;5028355;28;19952;-84
2022/09/12 06:21:48;;;;;;;;;;;13.80;88.20;;;;;;5027408;28;19909;-83
2022/09/12 06:24:14;;;;;;;;;;;14.00;88.10;;;;;;5033242;28;19967;-82
2022/09/12 06:26:40;;;;;;;;;;;14.10;88.10;;;;;;5026431;28;19916;-83
2022/09/12 06:29:06;;;;;;;;;;;14.30;88.00;;;;;;5037655;28;20519;-84
2022/09/12 06:31:33;;;;;;;;;;;14.50;87.80;;;;;;5036292;28;20388;-86
2022/09/12 06:34:00;;;;;;;;;;;14.60;87.90;;;;;;5034703;28;19921;-81
2022/09/12 06:36:30;;;;;;;;;;;14.70;87.80;;;;;;5042496;28;19920;-81
2022/09/12 06:38:57;;;;;;;;;;;14.80;87.60;;;;;;5032217;28;19917;-81
2022/09/12 06:41:23;;;;;;;;;;;15.00;87.40;;;;;;5041717;28;19994;-81
2022/09/12 06:43:49;;;;;;;;;;;15.10;87.40;;;;;;5042936;28;19917;-81
2022/09/12 06:46:14;;;;;;;;;;;15.20;87.30;;;;;;5037664;28;20418;-81
2022/09/12 06:48:40;;;;;;;;;;;15.30;86.90;;;;;;5035336;28;20351;-81
2022/09/12 06:51:08;;;;;;;;;;;15.40;87.00;;;;;;5038553;28;19924;-81
2022/09/12 06:53:35;;;;;;;;;;;15.50;86.90;;;;;;5035736;28;20300;-79
2022/09/12 06:56:02;;;;;;;;;;;15.50;86.80;;;;;;5037246;28;19920;-81
2022/09/12 06:58:29;;;;;;;;;;;15.50;87.00;;;;;;5039565;28;19909;-81
2022/09/12 07:01:07;;;;;;;;;;;15.50;87.10;;;;;;5035076;28;19999;-80
2022/09/12 07:03:33;;;;;;;;;;;15.50;87.60;;;;;;5033596;28;20028;-80
2022/09/12 07:06:02;;;;;;;;;;;15.50;87.70;;;;;;5034559;28;19984;-80
2022/09/12 07:08:30;;;;;;;;;;;15.50;87.80;;;;;;5034300;28;19971;-81
2022/09/12 07:10:57;;;;;;;;;;;15.50;87.80;;;;;;5050278;28;19948;-81
2022/09/12 07:13:23;;;;;;;;;;;15.60;87.90;;;;;;5037890;28;19971;-84
2022/09/12 07:15:48;;;;;;;;;;;15.60;88.10;;;;;;5036455;28;20331;-81
2022/09/12 07:18:14;;;;;;;;;;;15.70;88.00;;;;;;5035224;28;20334;-81
2022/09/12 07:20:40;;;;;;;;;;;15.90;87.90;;;;;;5037346;28;19925;-81
2022/09/12 07:23:05;;;;;;;;;;;15.90;88.00;;;;;;5037354;28;19912;-80
2022/09/12 07:25:31;;;;;;;;;;;16.10;87.50;;;;;;5037072;28;19913;-81
2022/09/12 07:27:56;;;;;;;;;;;16.20;87.30;;;;;;5037000;28;19917;-80
2022/09/12 07:30:22;;;;;;;;;;;16.30;87.10;;;;;;5037606;28;19923;-80
2022/09/12 07:32:50;;;;;;;;;;;16.40;86.80;;;;;;5039942;28;19917;-79
2022/09/12 07:35:16;;;;;;;;;;;16.50;86.80;;;;;;5037161;28;19917;-80
2022/09/12 07:37:42;;;;;;;;;;;16.50;86.60;;;;;;5035549;28;19923;-80
2022/09/12 07:40:10;;;;;;;;;;;16.60;86.70;;;;;;5033637;28;19917;-80
2022/09/12 07:42:36;;;;;;;;;;;16.70;86.40;;;;;;5032582;28;20012;-80
2022/09/12 07:45:02;;;;;;;;;;;17.00;85.00;;;;;;5034575;28;19953;-80
2022/09/12 07:47:27;;;;;;;;;;;17.10;84.50;;;;;;5033356;28;20299;-80
2022/09/12 07:49:53;;;;;;;;;;;17.20;83.70;;;;;;5034608;28;19919;-79
2022/09/12 07:52:18;;;;;;;;;;;17.20;83.40;;;;;;5030222;28;20272;-79
2022/09/12 07:54:44;;;;;;;;;;;17.20;83.40;;;;;;5037439;28;20299;-80
2022/09/12 07:57:14;;;;;;;;;;;17.20;83.40;;;;;;5035170;28;19966;-82
2022/09/12 07:59:41;;;;;;;;;;;17.30;82.80;;;;;;5034721;28;19917;-82
2022/09/12 08:02:12;;;;;;;;;;;17.40;82.90;;;;;;5029593;28;20056;-81
2022/09/12 08:04:38;;;;;;;;;;;17.40;83.00;;;;;;5035230;28;19913;-81
2022/09/12 08:07:05;;;;;;;;;;;17.50;82.90;;;;;;5041079;28;19932;-80
2022/09/12 08:09:31;;;;;;;;;;;17.50;83.30;;;;;;5039803;28;20002;-80
2022/09/12 08:11:56;;;;;;;;;;;17.60;83.00;;;;;;5035593;28;20283;-79
2022/09/12 08:14:21;;;;;;;;;;;17.60;82.70;;;;;;5037600;28;19920;-80
2022/09/12 08:16:47;;;;;;;;;;;17.70;82.70;;;;;;5036766;28;19955;-81
2022/09/12 08:19:12;;;;;;;;;;;17.60;82.50;;;;;;5035996;28;19921;-80
2022/09/12 08:21:38;;;;;;;;;;;17.60;82.20;;;;;;5046778;28;19971;-80
2022/09/12 08:24:04;;;;;;;;;;;17.80;82.60;;;;;;5046942;28;20039;-80
2022/09/12 08:26:31;;;;;;;;;;;17.80;82.00;;;;;;5040347;28;19909;-81
2022/09/12 08:28:57;;;;;;;;;;;17.80;82.10;;;;;;5035804;28;19913;-80
2022/09/12 08:31:24;;;;;;;;;;;17.90;82.10;;;;;;5026943;28;19909;-81
2022/09/12 08:33:49;;;;;;;;;;;18.00;81.60;;;;;;5033485;28;19940;-80
2022/09/12 08:36:20;;;;;;;;;;;17.90;81.60;;;;;;5036169;28;19909;-79
2022/09/12 08:38:47;;;;;;;;;;;18.10;81.50;;;;;;5053233;28;19913;-78
2022/09/12 08:41:33;;;;;;;;;;;18.10;81.30;;;;;;5038391;28;19954;-80
2022/09/12 08:44:17;;;;;;;;;;;18.20;81.60;;;;;;5048282;28;19952;-80
2022/09/12 08:46:52;;;;;;;;;;;18.30;81.40;;;;;;5034453;28;19945;-80
2022/09/12 08:49:29;;;;;;;;;;;18.30;81.80;;;;;;5033645;28;19917;-80
2022/09/12 08:51:56;;;;;;;;;;;18.40;82.00;;;;;;5025398;28;19909;-80
2022/09/12 08:54:24;;;;;;;;;;;18.60;81.90;;;;;;5033284;28;19956;-80
2022/09/12 08:56:49;;;;;;;;;;;18.60;81.70;;;;;;5032450;28;19936;-80
2022/09/12 08:59:15;;;;;;;;;;;18.60;81.70;;;;;;5034237;28;19913;-80
2022/09/12 09:01:42;;;;;;;;;;;18.50;81.90;;;;;;5033225;28;19932;-80
2022/09/12 09:04:13;;;;;;;;;;;18.60;80.70;;;;;;5032989;28;19911;-80
2022/09/12 09:06:51;;;;;;;;;;;18.80;79.70;;;;;;5032578;28;21285;-79
2022/09/12 09:09:23;;;;;;;;;;;18.80;79.80;;;;;;5032431;28;19967;-79
2022/09/12 09:11:56;;;;;;;;;;;18.90;80.00;;;;;;5034275;28;19921;-80
2022/09/12 09:17:11;;;;;;;;;;;19.00;79.40;;;;;;5034227;28;19920;-80
2022/09/12 09:19:39;;;;;;;;;;;19.10;77.80;;;;;;5032607;28;19994;-80
2022/09/12 09:22:13;;;;;;;;;;;19.10;77.10;;;;;;5034859;28;19940;-80
2022/09/12 09:24:40;;;;;;;;;;;19.20;78.00;;;;;;5034464;28;20481;-80
2022/09/12 09:27:08;;;;;;;;;;;19.30;77.70;;;;;;5033775;28;19924;-80
2022/09/12 09:29:46;;;;;;;;;;;19.40;77.30;;;;;;5033965;28;19909;-80
2022/09/12 09:32:30;;;;;;;;;;;19.40;77.30;;;;;;5040407;28;19963;-79
2022/09/12 09:34:55;;;;;;;;;;;19.20;77.80;;;;;;5026480;28;19909;-80
2022/09/12 09:37:33;;;;;;;;;;;19.30;77.20;;;;;;5034665;28;19948;-80
2022/09/12 09:40:16;;;;;;;;;;;19.10;78.10;;;;;;5040276;28;19958;-80
2022/09/12 09:42:45;;;;;;;;;;;19.10;79.00;;;;;;5025109;28;19948;-79
2022/09/12 09:45:15;;;;;;;;;;;19.30;78.00;;;;;;5028740;28;21746;-79
2022/09/12 09:47:43;;;;;;;;;;;19.40;76.70;;;;;;5040011;28;19924;-80
2022/09/12 09:50:12;;;;;;;;;;;19.50;76.70;;;;;;5031661;28;19967;-79
2022/09/12 09:52:38;;;;;;;;;;;19.60;75.80;;;;;;5030253;28;19917;-80
2022/09/12 09:55:04;;;;;;;;;;;19.70;75.80;;;;;;5032388;28;20380;-83
2022/09/12 09:57:33;;;;;;;;;;;19.90;76.00;;;;;;5038045;28;19915;-85
2022/09/12 09:59:58;;;;;;;;;;;20.20;74.50;;;;;;5034237;28;19919;-84
2022/09/12 10:02:25;;;;;;;;;;;20.20;73.90;;;;;;5033082;28;19913;-83
2022/09/12 10:04:57;;;;;;;;;;;20.30;74.00;;;;;;5037523;28;20002;-83
2022/09/12 10:07:24;;;;;;;;;;;20.30;73.50;;;;;;5037744;28;20299;-85
2022/09/12 10:10:08;;;;;;;;;;;20.20;73.70;;;;;;5039979;28;20030;-85
2022/09/12 10:12:36;;;;;;;;;;;20.20;73.70;;;;;;5044457;28;19917;-85
2022/09/12 10:15:14;;;;;;;;;;;20.30;73.70;;;;;;5048516;28;19970;-85
2022/09/12 10:17:45;;;;;;;;;;;20.30;73.30;;;;;;5046325;28;19913;-85
2022/09/12 10:20:29;;;;;;;;;;;20.40;72.30;;;;;;5037946;28;19913;-86
2022/09/12 10:22:56;;;;;;;;;;;20.40;71.30;;;;;;5040948;28;19917;-85
2022/09/12 10:25:23;;;;;;;;;;;20.60;71.00;;;;;;5039340;28;19914;-86
2022/09/12 10:27:57;;;;;;;;;;;20.50;72.70;;;;;;5037501;28;19925;-86
2022/09/12 10:30:26;;;;;;;;;;;20.60;69.00;;;;;;5038189;28;19920;-86
2022/09/12 10:32:55;;;;;;;;;;;20.50;69.10;;;;;;5048994;28;19920;-86
2022/09/12 10:35:22;;;;;;;;;;;20.60;68.70;;;;;;5044475;28;19913;-86
2022/09/12 10:37:56;;;;;;;;;;;20.60;68.80;;;;;;5045346;28;19916;-87
2022/09/12 10:40:24;;;;;;;;;;;20.60;68.80;;;;;;5032546;28;19984;-89
2022/09/12 10:42:51;;;;;;;;;;;20.80;69.40;;;;;;5034517;28;20354;-81
2022/09/12 10:45:23;;;;;;;;;;;20.80;68.50;;;;;;5037467;28;19979;-82
2022/09/12 10:47:49;;;;;;;;;;;21.10;68.30;;;;;;5034188;28;19917;-82
2022/09/12 10:50:22;;;;;;;;;;;21.10;70.30;;;;;;5037026;28;20016;-83
2022/09/12 10:52:48;;;;;;;;;;;21.10;67.50;;;;;;5033365;28;19925;-82
2022/09/12 10:55:14;;;;;;;;;;;21.10;67.20;;;;;;5035253;28;19920;-83
2022/09/12 10:57:53;;;;;;;;;;;21.00;69.20;;;;;;5034302;28;20234;-83
2022/09/12 11:00:26;;;;;;;;;;;21.00;68.60;;;;;;5034061;28;20407;-84
2022/09/12 11:03:04;;;;;;;;;;;20.80;70.10;;;;;;5031231;28;20000;-83
2022/09/12 11:05:36;;;;;;;;;;;20.90;68.70;;;;;;5032411;28;19956;-85
2022/09/12 11:08:07;;;;;;;;;;;20.90;67.00;;;;;;5044511;28;19916;-85
2022/09/12 11:10:37;;;;;;;;;;;20.90;68.40;;;;;;5045720;28;19936;-84
2022/09/12 11:13:12;;;;;;;;;;;21.00;67.50;;;;;;5045056;28;19918;-84
2022/09/12 11:15:55;;;;;;;;;;;21.10;67.40;;;;;;5033595;28;20362;-85
2022/09/12 11:18:24;;;;;;;;;;;21.20;65.80;;;;;;5030806;28;19913;-83
2022/09/12 11:20:56;;;;;;;;;;;21.10;67.30;;;;;;5029184;28;19921;-83
2022/09/12 11:23:29;;;;;;;;;;;21.00;67.80;;;;;;5030493;28;19935;-84
2022/09/12 11:26:01;;;;;;;;;;;21.00;68.20;;;;;;5030443;28;20001;-84
2022/09/12 11:28:45;;;;;;;;;;;20.90;67.70;;;;;;5031206;28;19927;-83
2022/09/12 11:31:29;;;;;;;;;;;20.90;69.50;;;;;;5034777;28;19919;-83
2022/09/12 11:33:56;;;;;;;;;;;20.90;67.10;;;;;;5027384;28;20408;-84
2022/09/12 11:36:46;;;;;;;;;;;21.00;65.90;;;;;;5030219;28;19913;-82
2022/09/12 11:39:16;;;;;;;;;;;21.40;64.00;;;;;;5024539;28;20288;-82
2022/09/12 11:41:48;;;;;;;;;;;21.50;65.30;;;;;;5043524;28;20296;-83
2022/09/12 11:44:16;;;;;;;;;;;21.50;66.00;;;;;;5029722;28;19913;-83
2022/09/12 11:46:42;;;;;;;;;;;21.40;65.00;;;;;;5024617;28;20299;-84
2022/09/12 11:49:08;;;;;;;;;;;21.40;64.90;;;;;;5037488;28;19913;-82
2022/09/12 11:51:36;;;;;;;;;;;21.50;64.80;;;;;;5030857;28;20378;-84
2022/09/12 11:54:23;;;;;;;;;;;21.50;63.80;;;;;;5031153;28;19917;-84
2022/09/12 11:56:52;;;;;;;;;;;21.60;66.30;;;;;;5029142;28;20379;-83
2022/09/12 11:59:24;;;;;;;;;;;21.50;66.60;;;;;;5029509;28;19919;-82
2022/09/12 12:01:52;;;;;;;;;;;21.60;63.40;;;;;;5030075;28;19948;-82
2022/09/12 12:04:23;;;;;;;;;;;21.50;62.50;;;;;;5037933;28;19920;-82
2022/09/12 12:06:51;;;;;;;;;;;21.50;63.80;;;;;;5036731;28;20020;-82
2022/09/12 12:09:16;;;;;;;;;;;21.70;62.90;;;;;;5035835;28;19956;-82
2022/09/12 12:11:46;;;;;;;;;;;21.80;61.90;;;;;;5025295;28;20381;-82
2022/09/12 12:14:11;;;;;;;;;;;21.80;62.10;;;;;;5035210;28;20456;-82
2022/09/12 12:16:37;;;;;;;;;;;22.10;59.80;;;;;;5033421;28;20004;-82
2022/09/12 12:19:21;;;;;;;;;;;22.00;61.40;;;;;;5038541;28;20003;-83
2022/09/12 12:21:47;;;;;;;;;;;22.00;61.10;;;;;;5041149;28;19992;-82
2022/09/12 12:24:12;;;;;;;;;;;22.00;62.20;;;;;;5051294;28;19913;-82
2022/09/12 12:26:37;;;;;;;;;;;22.10;62.50;;;;;;5023313;28;20103;-83
2022/09/12 12:29:04;;;;;;;;;;;22.00;63.40;;;;;;5023817;28;19921;-80
2022/09/12 12:31:29;;;;;;;;;;;22.10;60.60;;;;;;5025431;28;20458;-82
2022/09/12 12:34:00;;;;;;;;;;;22.00;61.50;;;;;;5027088;28;19951;-82
2022/09/12 12:36:37;;;;;;;;;;;21.80;62.60;;;;;;5034107;28;19921;-87
2022/09/12 12:39:21;;;;;;;;;;;22.00;60.50;;;;;;5028507;28;19925;-82
2022/09/12 12:41:47;;;;;;;;;;;21.90;62.70;;;;;;5041243;28;19982;-82
2022/09/12 12:44:32;;;;;;;;;;;22.10;61.60;;;;;;5036867;28;20292;-86
2022/09/12 12:47:27;;;;;;;;;;;22.10;61.60;;;;;;5018420;28;19917;-87
2022/09/12 12:49:57;;;;;;;;;;;22.00;62.10;;;;;;5014197;28;19960;-86
2022/09/12 12:52:24;;;;;;;;;;;22.00;61.10;;;;;;5043734;28;20295;-87
2022/09/12 12:54:55;;;;;;;;;;;22.10;60.70;;;;;;5029045;28;20313;-87
2022/09/12 12:57:23;;;;;;;;;;;22.20;58.70;;;;;;5029853;28;19913;-87
2022/09/12 12:59:54;;;;;;;;;;;22.40;57.90;;;;;;5029000;28;19913;-86
2022/09/12 13:02:25;;;;;;;;;;;22.40;59.50;;;;;;5029773;28;19913;-88
2022/09/12 13:04:51;;;;;;;;;;;22.50;59.10;;;;;;5029484;28;19947;-87
2022/09/12 13:07:24;;;;;;;;;;;22.60;59.00;;;;;;5030110;28;20300;-86
2022/09/12 13:09:51;;;;;;;;;;;22.70;58.20;;;;;;5027080;28;20292;-85
2022/09/12 13:12:22;;;;;;;;;;;22.60;58.70;;;;;;5027002;28;19925;-88
2022/09/12 13:14:55;;;;;;;;;;;22.50;59.40;;;;;;5026052;28;20030;-88
2022/09/12 13:17:21;;;;;;;;;;;22.60;58.90;;;;;;5037169;28;19914;-88
2022/09/12 13:19:56;;;;;;;;;;;22.80;59.00;;;;;;5028968;28;20299;-89
2022/09/12 13:22:27;;;;;;;;;;;22.90;56.00;;;;;;5030708;28;19910;-89
2022/09/12 13:24:54;;;;;;;;;;;23.00;55.10;;;;;;5030124;28;19963;-89
2022/09/12 13:27:22;;;;;;;;;;;23.20;55.60;;;;;;5022396;28;19917;-90
2022/09/12 13:29:48;;;;;;;;;;;23.40;54.10;;;;;;5031494;28;20364;-89
2022/09/12 13:32:14;;;;;;;;;;;23.40;54.50;;;;;;5031029;28;20362;-88
2022/09/12 13:34:47;;;;;;;;;;;23.30;53.80;;;;;;5041282;28;19917;-89
2022/09/12 13:37:16;;;;;;;;;;;23.20;55.60;;;;;;5033832;28;19925;-88
2022/09/12 13:40:00;;;;;;;;;;;23.00;53.50;;;;;;5011139;28;20613;-90
2022/09/12 13:42:48;;;;;;;;;;;23.10;53.70;;;;;;5024796;28;19913;-90
2022/09/12 13:45:14;;;;;;;;;;;23.00;54.60;;;;;;5028274;28;20319;-88
2022/09/12 13:47:43;;;;;;;;;;;23.00;55.30;;;;;;5028629;28;19932;-88
2022/09/12 13:50:17;;;;;;;;;;;22.80;57.70;;;;;;5028810;28;19913;-88
2022/09/12 13:52:49;;;;;;;;;;;22.80;54.70;;;;;;5044389;28;19913;-88
2022/09/12 13:55:22;;;;;;;;;;;22.70;55.50;;;;;;5029164;28;20060;-88
2022/09/12 13:57:54;;;;;;;;;;;22.90;54.00;;;;;;5028374;28;19917;-90
2022/09/12 14:00:24;;;;;;;;;;;23.00;53.00;;;;;;5047573;28;19917;-89
2022/09/12 14:05:06;;;;;;;;;;;23.20;53.70;;;;;;5031512;28;19909;-89
2022/09/12 14:05:37;;;;;;;;;;;23.10;55.10;;;;;;5028832;28;19913;-88
2022/09/12 14:08:05;;;;;;;;;;;23.00;54.50;;;;;;5025220;28;19922;-87
2022/09/12 14:10:32;;;;;;;;;;;22.90;54.90;;;;;;5028970;28;19914;-88
2022/09/12 14:12:59;;;;;;;;;;;22.80;55.00;;;;;;5044928;28;19925;-88
2022/09/12 14:15:30;;;;;;;;;;;23.00;53.20;;;;;;5030232;28;19921;-88
2022/09/12 14:18:00;;;;;;;;;;;22.80;55.20;;;;;;5029022;28;20549;-89
2022/09/12 14:20:28;;;;;;;;;;;22.80;54.00;;;;;;5023539;28;20388;-88
2022/09/12 14:22:54;;;;;;;;;;;22.80;54.70;;;;;;5037689;28;19945;-88
2022/09/12 14:25:21;;;;;;;;;;;22.80;54.10;;;;;;5036304;28;20007;-88
2022/09/12 14:27:50;;;;;;;;;;;22.80;54.60;;;;;;5030978;28;20011;-89
2022/09/12 14:30:26;;;;;;;;;;;22.80;55.40;;;;;;5034410;28;19913;-88
2022/09/12 14:33:09;;;;;;;;;;;22.80;54.30;;;;;;5040271;28;19914;-88
2022/09/12 14:35:36;;;;;;;;;;;22.70;55.20;;;;;;5030228;28;19921;-88
2022/09/12 14:38:24;;;;;;;;;;;22.80;53.90;;;;;;5030422;28;19913;-91